Time;durP1;ratioP1;P1;durP2;ratioP2;P2;SDS_P1;SDS_P2;PMS_P1;PMS_P2;Temp;Humidity;BMP_temperature;BMP_pressure;BME280_temperature;BME280_humidity;BME280_pressure;Samples;Min_cycle;Max_cycle;Signal;HPM_P1;HPM_P2
2022/03/29 00:01:58;;;;;;;;;;;;;;;26.02;31.54;94110.56;4907233;29;9070;-59
2022/03/29 00:04:54;;;;;;;;;;;;;;;26.04;31.22;94104.53;4894822;29;7158;-58
2022/03/29 00:07:20;;;;;;;;;;;;;;;26.03;31.29;94105.81;4890972;29;9121;-58
2022/03/29 00:10:16;;;;;;;;;;;;;;;26.03;30.92;94109.28;4888296;29;7252;-58
2022/03/29 00:12:54;;;;;;;;;;;;;;;26.02;31.87;94102.28;4868302;29;7266;-59
2022/03/29 00:15:34;;;;;;;;;;;;;;;26.00;31.73;94104.06;4868060;29;9048;-58
2022/03/29 00:18:03;;;;;;;;;;;;;;;26.01;32.06;94091.78;4867632;29;7271;-58
2022/03/29 00:20:31;;;;;;;;;;;;;;;25.99;31.68;94095.06;4894690;29;9243;-58
2022/03/29 00:23:22;;;;;;;;;;;;;;;26.00;31.73;94085.53;4886658;29;9364;-58
2022/03/29 00:25:57;;;;;;;;;;;;;;;25.99;31.29;94084.03;4883683;29;7017;-58
2022/03/29 00:28:25;;;;;;;;;;;;;;;25.97;31.17;94070.03;4877630;29;9424;-59
2022/03/29 00:30:55;;;;;;;;;;;;;;;25.96;31.46;94073.31;4878287;29;8768;-59
2022/03/29 00:33:21;;;;;;;;;;;;;;;25.93;31.83;94066.06;4889946;29;6994;-59
2022/03/29 00:36:18;;;;;;;;;;;;;;;25.94;31.46;94062.06;4889849;29;7392;-59
2022/03/29 00:38:46;;;;;;;;;;;;;;;25.95;31.26;94066.31;4891297;29;7426;-59
2022/03/29 00:41:13;;;;;;;;;;;;;;;25.94;31.48;94060.06;4882796;29;7583;-59
2022/03/29 00:43:40;;;;;;;;;;;;;;;25.92;31.60;94054.34;4887727;29;9127;-59
2022/03/29 00:46:07;;;;;;;;;;;;;;;25.92;31.75;94051.56;4877312;29;9142;-58
2022/03/29 00:48:35;;;;;;;;;;;;;;;25.91;31.51;94050.06;4897228;29;9365;-59
2022/03/29 00:51:01;;;;;;;;;;;;;;;25.92;31.09;94051.56;4945576;28;7225;-59
2022/03/29 00:53:28;;;;;;;;;;;;;;;25.91;31.85;94041.81;4940347;28;7236;-58
2022/03/29 00:55:55;;;;;;;;;;;;;;;25.89;31.26;94041.59;4941247;28;9548;-59
2022/03/29 00:58:22;;;;;;;;;;;;;;;25.90;31.41;94037.56;4940859;28;7876;-59
2022/03/29 01:00:48;;;;;;;;;;;;;;;25.89;31.96;94041.59;4946891;28;9996;-59
2022/03/29 01:03:15;;;;;;;;;;;;;;;25.90;31.92;94037.56;4934141;28;7006;-59
2022/03/29 01:05:41;;;;;;;;;;;;;;;25.87;31.78;94027.59;4938789;28;9220;-59
2022/03/29 01:08:08;;;;;;;;;;;;;;;25.89;31.77;94027.06;4935548;28;7220;-58
2022/03/29 01:10:37;;;;;;;;;;;;;;;25.90;32.10;94028.56;4942848;28;9109;-59
2022/03/29 01:13:07;;;;;;;;;;;;;;;25.90;31.03;94028.56;4938558;28;7249;-58
2022/03/29 01:15:37;;;;;;;;;;;;;;;25.89;31.81;94025.06;4933152;28;7504;-58
2022/03/29 01:18:07;;;;;;;;;;;;;;;25.88;31.79;94022.84;4949601;28;9450;-59
2022/03/29 01:20:37;;;;;;;;;;;;;;;25.88;31.91;94029.06;4928643;28;7261;-59
2022/03/29 01:23:06;;;;;;;;;;;;;;;25.87;31.16;94026.84;4934134;28;9576;-58
2022/03/29 01:25:37;;;;;;;;;;;;;;;25.85;31.60;94013.59;4948974;28;9527;-59
2022/03/29 01:28:16;;;;;;;;;;;;;;;25.86;31.28;94015.06;4938038;28;7040;-58
2022/03/29 01:30:54;;;;;;;;;;;;;;;25.85;31.94;94013.59;4939331;28;6975;-59
2022/03/29 01:33:27;;;;;;;;;;;;;;;25.85;31.04;94013.59;4920788;29;9421;-59
2022/03/29 01:36:14;;;;;;;;;;;;;;;25.85;31.54;94008.09;4941906;28;7066;-58
2022/03/29 01:38:51;;;;;;;;;;;;;;;25.81;31.75;94007.63;4922344;28;9134;-59
2022/03/29 01:41:38;;;;;;;;;;;;;;;25.82;31.87;94002.84;4938498;28;9423;-58
2022/03/29 01:44:24;;;;;;;;;;;;;;;25.81;31.33;93996.63;4951976;28;6995;-59
2022/03/29 01:46:57;;;;;;;;;;;;;;;25.81;31.20;93987.59;4955353;28;9342;-59
2022/03/29 01:49:24;;;;;;;;;;;;;;;25.79;30.85;93979.88;4955976;28;9497;-58
2022/03/29 01:51:50;;;;;;;;;;;;;;;25.79;31.87;93988.13;4948334;28;8721;-58
2022/03/29 01:54:16;;;;;;;;;;;;;;;25.80;31.80;93983.34;4950213;28;9248;-59
2022/03/29 01:56:42;;;;;;;;;;;;;;;25.78;31.20;93986.63;4945087;28;9149;-59
2022/03/29 01:59:14;;;;;;;;;;;;;;;25.79;31.39;93985.38;4950614;28;7306;-59
2022/03/29 02:01:51;;;;;;;;;;;;;;;25.77;31.40;93979.66;4938422;28;6900;-59
2022/03/29 02:04:21;;;;;;;;;;;;;;;25.78;31.25;93977.63;4934691;28;9016;-60
2022/03/29 02:06:47;;;;;;;;;;;;;;;25.77;31.25;93979.66;4937889;28;7222;-60
2022/03/29 02:09:26;;;;;;;;;;;;;;;25.77;31.83;93981.66;4934101;29;9174;-60
2022/03/29 02:11:57;;;;;;;;;;;;;;;25.76;31.63;93980.91;4950802;28;9111;-60
2022/03/29 02:14:34;;;;;;;;;;;;;;;25.77;31.17;93967.88;4963853;28;8711;-60
2022/03/29 02:17:09;;;;;;;;;;;;;;;25.74;31.85;93969.66;4932342;28;9509;-60
2022/03/29 02:19:36;;;;;;;;;;;;;;;25.74;31.84;93960.66;4920338;28;7207;-60
2022/03/29 02:22:02;;;;;;;;;;;;;;;25.73;31.60;93965.41;4945535;28;7166;-60
2022/03/29 02:24:28;;;;;;;;;;;;;;;25.72;31.03;93952.91;4918593;28;7050;-60
2022/03/29 02:26:54;;;;;;;;;;;;;;;25.72;31.26;93952.91;4932680;28;7000;-60
2022/03/29 02:29:20;;;;;;;;;;;;;;;25.70;31.35;93958.19;4937307;28;8962;-60
2022/03/29 02:31:45;;;;;;;;;;;;;;;25.70;31.82;93951.94;4932760;28;6974;-60
2022/03/29 02:34:11;;;;;;;;;;;;;;;25.69;31.78;93959.47;4934271;28;9107;-60
2022/03/29 02:36:39;;;;;;;;;;;;;;;25.68;31.80;93944.22;4942719;28;7135;-60
2022/03/29 02:39:11;;;;;;;;;;;;;;;25.69;31.76;93945.69;4950919;28;9742;-60
2022/03/29 02:41:46;;;;;;;;;;;;;;;25.69;31.65;93934.66;4946534;28;9103;-60
2022/03/29 02:44:22;;;;;;;;;;;;;;;25.66;31.06;93932.22;4950724;28;7445;-60
2022/03/29 02:46:49;;;;;;;;;;;;;;;25.67;31.19;93937.19;4938235;28;7912;-60
2022/03/29 02:49:25;;;;;;;;;;;;;;;25.67;31.62;93931.69;4934331;29;6991;-60
2022/03/29 02:51:52;;;;;;;;;;;;;;;25.66;32.17;93926.72;4946245;28;7192;-60
2022/03/29 02:54:20;;;;;;;;;;;;;;;25.66;31.95;93921.97;4932756;28;7244;-60
2022/03/29 02:56:47;;;;;;;;;;;;;;;25.65;31.35;93928.72;4925118;28;9062;-60
2022/03/29 02:59:14;;;;;;;;;;;;;;;25.66;31.70;93934.97;4932014;29;9102;-60
2022/03/29 03:01:42;;;;;;;;;;;;;;;25.64;31.19;93921.72;4935804;28;9441;-60
2022/03/29 03:04:16;;;;;;;;;;;;;;;25.65;31.82;93923.22;4920155;29;9114;-60
2022/03/29 03:06:46;;;;;;;;;;;;;;;25.65;31.56;93923.22;4941459;28;9547;-60
2022/03/29 03:09:21;;;;;;;;;;;;;;;25.65;31.96;93919.69;4948457;28;7459;-60
2022/03/29 03:11:49;;;;;;;;;;;;;;;25.62;31.50;93921.47;4941688;28;9566;-60
2022/03/29 03:14:14;;;;;;;;;;;;;;;25.63;32.05;93923.00;4939738;28;7353;-60
2022/03/29 03:16:46;;;;;;;;;;;;;;;25.63;31.72;93923.00;4947611;28;9455;-60
2022/03/29 03:19:14;;;;;;;;;;;;;;;25.64;31.70;93915.47;4950302;28;9064;-60
2022/03/29 03:21:46;;;;;;;;;;;;;;;25.63;31.66;93920.22;4938164;29;8029;-60
2022/03/29 03:24:18;;;;;;;;;;;;;;;25.60;31.79;93917.78;4945100;28;9547;-60
2022/03/29 03:26:47;;;;;;;;;;;;;;;25.61;31.32;93919.25;4952170;28;7239;-60
2022/03/29 03:29:16;;;;;;;;;;;;;;;25.62;31.05;93923.53;4953630;28;9165;-60
2022/03/29 03:31:42;;;;;;;;;;;;;;;25.61;31.99;93922.00;4933928;29;9125;-60
2022/03/29 03:34:16;;;;;;;;;;;;;;;25.62;31.01;93924.25;4937668;29;6975;-60
2022/03/29 03:37:07;;;;;;;;;;;;;;;25.61;31.69;93916.50;4935654;29;7118;-60
2022/03/29 03:39:39;;;;;;;;;;;;;;;25.57;31.81;93908.56;4931472;29;9295;-60
2022/03/29 03:42:08;;;;;;;;;;;;;;;25.59;31.91;93913.53;4931182;29;7467;-60
2022/03/29 03:44:51;;;;;;;;;;;;;;;25.59;31.58;93924.56;4951065;28;6994;-60
2022/03/29 03:47:22;;;;;;;;;;;;;;;25.59;31.14;93919.78;4935164;28;8837;-60
2022/03/29 03:49:50;;;;;;;;;;;;;;;25.58;31.55;93914.81;4950088;29;8763;-59
2022/03/29 03:52:19;;;;;;;;;;;;;;;25.56;31.76;93907.06;4926717;29;7062;-60
2022/03/29 03:54:45;;;;;;;;;;;;;;;25.56;32.02;93906.31;4918378;28;9135;-60
2022/03/29 03:57:11;;;;;;;;;;;;;;;25.54;31.61;93900.56;4935712;29;9146;-60
2022/03/29 03:59:50;;;;;;;;;;;;;;;25.55;31.92;93902.06;4935742;29;7260;-60
2022/03/29 04:02:23;;;;;;;;;;;;;;;25.55;31.83;93896.56;4938023;29;9132;-60
2022/03/29 04:04:51;;;;;;;;;;;;;;;25.54;31.56;93901.31;4947686;29;8727;-60
2022/03/29 04:07:46;;;;;;;;;;;;;;;25.54;31.27;93893.06;4931545;29;7006;-60
2022/03/29 04:10:15;;;;;;;;;;;;;;;25.54;31.92;93892.31;4903825;29;9114;-60
2022/03/29 04:12:43;;;;;;;;;;;;;;;25.52;31.46;93886.59;4894759;29;8880;-60
2022/03/29 04:15:10;;;;;;;;;;;;;;;25.52;31.47;93889.34;4897309;29;7646;-60
2022/03/29 04:17:57;;;;;;;;;;;;;;;25.50;32.12;93878.84;4895936;29;9594;-60
2022/03/29 04:20:36;;;;;;;;;;;;;;;25.46;31.68;93867.41;4885695;29;9559;-60
2022/03/29 04:23:02;;;;;;;;;;;;;;;25.48;32.00;93870.38;4890138;29;9133;-60
2022/03/29 04:25:28;;;;;;;;;;;;;;;25.47;31.57;93877.13;4902145;29;7317;-60
2022/03/29 04:27:56;;;;;;;;;;;;;;;25.47;31.91;93874.38;4904728;29;8236;-60
2022/03/29 04:30:23;;;;;;;;;;;;;;;25.47;31.40;93879.16;4911869;29;9476;-60
2022/03/29 04:32:52;;;;;;;;;;;;;;;25.48;31.16;93873.13;4896544;29;8864;-60
2022/03/29 04:35:18;;;;;;;;;;;;;;;25.48;31.41;93864.13;4907478;29;9245;-60
2022/03/29 04:38:06;;;;;;;;;;;;;;;25.47;31.16;93866.13;4896094;29;7223;-60
2022/03/29 04:40:40;;;;;;;;;;;;;;;25.47;31.01;93866.13;4887682;29;8932;-60
2022/03/29 04:43:28;;;;;;;;;;;;;;;25.47;30.86;93868.16;4900063;29;9112;-60
2022/03/29 04:45:56;;;;;;;;;;;;;;;25.44;31.45;93861.69;4901220;29;7276;-60
2022/03/29 04:48:23;;;;;;;;;;;;;;;25.45;31.63;93863.16;4938291;28;9086;-60
2022/03/29 04:50:49;;;;;;;;;;;;;;;25.46;31.88;93859.16;4955396;28;7115;-60
2022/03/29 04:53:15;;;;;;;;;;;;;;;25.44;31.11;93864.44;4955018;28;9412;-60
2022/03/29 04:55:40;;;;;;;;;;;;;;;25.43;31.37;93862.94;4949228;28;7283;-60
2022/03/29 04:58:36;;;;;;;;;;;;;;;25.42;31.36;93856.69;4955685;28;6966;-60
2022/03/29 05:01:15;;;;;;;;;;;;;;;25.40;31.61;93853.69;4937481;28;8796;-60
2022/03/29 05:03:42;;;;;;;;;;;;;;;25.40;31.18;93858.47;4954720;28;7263;-60
2022/03/29 05:06:10;;;;;;;;;;;;;;;25.38;31.29;93849.97;4944284;28;7393;-60
2022/03/29 05:08:45;;;;;;;;;;;;;;;25.37;31.39;93854.00;4947714;28;7277;-60
2022/03/29 05:11:16;;;;;;;;;;;;;;;25.36;31.12;93844.22;4938572;28;9472;-60
2022/03/29 05:13:52;;;;;;;;;;;;;;;25.37;30.90;93848.47;4939119;28;7221;-60
2022/03/29 05:16:20;;;;;;;;;;;;;;;25.36;30.42;93846.97;4947691;28;7602;-60
2022/03/29 05:18:54;;;;;;;;;;;;;;;25.36;30.74;93846.97;4940467;28;7361;-60
2022/03/29 05:21:21;;;;;;;;;;;;;;;25.36;30.81;93846.97;4932385;28;7418;-60
2022/03/29 05:24:08;;;;;;;;;;;;;;;25.34;30.20;93850.25;4955945;28;7477;-60
2022/03/29 05:26:44;;;;;;;;;;;;;;;25.34;30.35;93844.00;4954477;28;9236;-60
2022/03/29 05:29:14;;;;;;;;;;;;;;;25.32;30.23;93841.03;4943427;28;8788;-60
2022/03/29 05:32:06;;;;;;;;;;;;;;;25.34;30.36;93855.03;4950480;28;8920;-59
2022/03/29 05:34:32;;;;;;;;;;;;;;;25.34;30.21;93855.78;4916895;29;7092;-60
2022/03/29 05:37:07;;;;;;;;;;;;;;;25.33;31.15;93853.56;4932303;29;6992;-60
2022/03/29 05:39:43;;;;;;;;;;;;;;;25.31;31.36;93856.09;4920993;29;7522;-60
2022/03/29 05:42:11;;;;;;;;;;;;;;;25.29;30.54;93847.59;4921993;29;8797;-60
2022/03/29 05:44:38;;;;;;;;;;;;;;;25.30;30.87;93854.59;4916220;29;6935;-60
2022/03/29 05:50:11;;;;;;;;;;;;;;;25.30;30.53;93854.59;4923760;29;8651;-60
2022/03/29 05:52:37;;;;;;;;;;;;;;;25.27;29.93;93855.63;4917986;28;8691;-60
2022/03/29 05:55:06;;;;;;;;;;;;;;;25.24;29.69;93854.66;4925891;28;8811;-60
2022/03/29 05:57:34;;;;;;;;;;;;;;;25.25;29.13;93858.19;4926376;29;7220;-60
2022/03/29 06:00:00;;;;;;;;;;;;;;;25.22;29.08;93857.19;4911466;29;9016;-60
2022/03/29 06:02:26;;;;;;;;;;;;;;;25.21;29.33;93860.47;4922434;29;7923;-60
2022/03/29 06:04:58;;;;;;;;;;;;;;;25.21;27.92;93857.69;4920336;29;8478;-61
2022/03/29 06:07:24;;;;;;;;;;;;;;;25.21;29.04;93863.22;4899844;29;9077;-61
2022/03/29 06:09:50;;;;;;;;;;;;;;;25.19;29.39;93860.22;4906108;29;9540;-61
2022/03/29 06:12:24;;;;;;;;;;;;;;;25.18;29.29;93856.75;4945797;28;9069;-61
2022/03/29 06:14:54;;;;;;;;;;;;;;;25.15;29.47;93857.03;4933545;28;8791;-60
2022/03/29 06:17:25;;;;;;;;;;;;;;;25.19;29.71;93871.25;4939742;28;7240;-61
2022/03/29 06:19:54;;;;;;;;;;;;;;;25.18;29.28;93856.75;4941048;28;7059;-61
2022/03/29 06:22:27;;;;;;;;;;;;;;;25.18;29.42;93856.00;4940933;28;7070;-61
2022/03/29 06:24:58;;;;;;;;;;;;;;;25.17;29.75;93851.75;4934568;28;8303;-61
2022/03/29 06:27:25;;;;;;;;;;;;;;;25.18;29.92;93850.50;4951376;28;9017;-61
2022/03/29 06:29:57;;;;;;;;;;;;;;;25.21;29.96;93849.44;4943619;28;8006;-60
2022/03/29 06:32:28;;;;;;;;;;;;;;;25.22;30.08;93853.69;4943950;28;7221;-61
2022/03/29 06:35:07;;;;;;;;;;;;;;;25.21;30.35;93850.19;4954597;28;9094;-60
2022/03/29 06:37:44;;;;;;;;;;;;;;;25.22;30.22;93848.19;4953029;28;9102;-60
2022/03/29 06:40:32;;;;;;;;;;;;;;;25.22;29.98;93851.69;4934260;29;7276;-60
2022/03/29 06:43:01;;;;;;;;;;;;;;;25.19;29.75;93852.72;4950670;28;9351;-60
2022/03/29 06:45:31;;;;;;;;;;;;;;;25.21;30.29;93857.69;4936705;28;9046;-60
2022/03/29 06:48:14;;;;;;;;;;;;;;;25.21;30.10;93846.69;4949710;28;7370;-60
2022/03/29 06:50:42;;;;;;;;;;;;;;;25.20;30.12;93845.22;4953840;28;9134;-60
2022/03/29 06:53:10;;;;;;;;;;;;;;;25.17;30.53;93846.25;4953435;28;9446;-60
2022/03/29 06:55:41;;;;;;;;;;;;;;;25.19;29.97;93851.97;4937843;28;9158;-60
2022/03/29 06:58:08;;;;;;;;;;;;;;;25.17;30.47;93844.25;4937038;28;9084;-60
2022/03/29 07:00:38;;;;;;;;;;;;;;;25.20;30.48;93845.97;4924236;29;7165;-60
2022/03/29 07:03:17;;;;;;;;;;;;;;;25.22;30.35;93850.94;4937308;28;7155;-60
2022/03/29 07:05:48;;;;;;;;;;;;;;;25.23;30.14;93844.16;4932516;28;7226;-60
2022/03/29 07:08:20;;;;;;;;;;;;;;;25.23;30.79;93844.16;4938494;28;7553;-60
2022/03/29 07:14:12;;;;;;;;;;;;;;;25.22;30.64;93839.94;4920630;29;8786;-60
2022/03/29 07:16:41;;;;;;;;;;;;;;;25.19;30.33;93838.22;4891101;29;9044;-60
2022/03/29 07:19:22;;;;;;;;;;;;;;;25.21;30.54;93841.19;4891043;29;6990;-60
2022/03/29 07:21:49;;;;;;;;;;;;;;;25.21;30.41;93844.69;4900406;29;9061;-60
2022/03/29 07:24:27;;;;;;;;;;;;;;;25.23;30.34;93846.91;4903598;29;7243;-60
2022/03/29 07:27:10;;;;;;;;;;;;;;;25.17;30.66;93838.75;4902058;29;7096;-60
2022/03/29 07:29:39;;;;;;;;;;;;;;;25.19;30.82;93844.47;4887541;29;7123;-60
2022/03/29 07:32:14;;;;;;;;;;;;;;;25.21;30.37;93846.69;4890076;29;8808;-60
2022/03/29 07:34:54;;;;;;;;;;;;;;;25.21;30.02;93838.44;4889484;29;7039;-60
2022/03/29 07:37:35;;;;;;;;;;;;;;;25.22;30.24;93845.44;4883492;29;7239;-61
2022/03/29 07:40:01;;;;;;;;;;;;;;;25.16;30.07;93840.03;4906774;29;7406;-60
2022/03/29 07:42:31;;;;;;;;;;;;;;;25.16;30.43;93837.28;4897347;29;9114;-61
2022/03/29 07:45:03;;;;;;;;;;;;;;;25.17;30.50;93832.50;4905165;29;9102;-61
2022/03/29 07:47:43;;;;;;;;;;;;;;;25.19;30.28;93838.22;4883025;29;9126;-61
2022/03/29 07:50:11;;;;;;;;;;;;;;;25.20;30.31;93836.97;4888389;29;7345;-60
2022/03/29 07:52:40;;;;;;;;;;;;;;;25.19;30.21;93835.47;4914076;28;9061;-60
2022/03/29 07:55:10;;;;;;;;;;;;;;;25.21;30.56;93833.69;4932034;29;9092;-60
2022/03/29 07:58:08;;;;;;;;;;;;;;;25.18;30.38;93832.00;4946710;28;7254;-60
2022/03/29 08:00:36;;;;;;;;;;;;;;;25.20;30.29;93829.47;4939845;28;7348;-61
2022/03/29 08:03:15;;;;;;;;;;;;;;;25.23;30.64;93822.91;4940534;28;7242;-60
2022/03/29 08:05:50;;;;;;;;;;;;;;;25.24;30.41;93823.66;4946190;28;9111;-61
2022/03/29 08:08:20;;;;;;;;;;;;;;;25.24;30.95;93815.38;4938328;28;8240;-61
2022/03/29 08:11:13;;;;;;;;;;;;;;;25.26;30.64;93816.34;4932420;28;7259;-61
2022/03/29 08:13:41;;;;;;;;;;;;;;;25.24;31.00;93820.88;4955995;28;7209;-61
2022/03/29 08:16:13;;;;;;;;;;;;;;;25.24;30.80;93820.88;4920930;29;9433;-61
2022/03/29 08:18:50;;;;;;;;;;;;;;;25.23;31.21;93814.63;4938334;28;7209;-60
2022/03/29 08:24:08;;;;;;;;;;;;;;;25.21;31.05;93819.16;4949421;28;7883;-60
2022/03/29 08:26:50;;;;;;;;;;;;;;;25.20;30.82;93807.44;4939376;28;9195;-61
2022/03/29 08:29:21;;;;;;;;;;;;;;;25.19;30.92;93811.44;4943887;28;9431;-60
2022/03/29 08:31:53;;;;;;;;;;;;;;;25.20;31.03;93818.44;4948760;28;9056;-61
2022/03/29 08:34:19;;;;;;;;;;;;;;;25.18;31.71;93812.72;4939645;28;9350;-61
2022/03/29 08:36:55;;;;;;;;;;;;;;;25.20;31.21;93807.44;4951977;28;7042;-60
2022/03/29 08:39:29;;;;;;;;;;;;;;;25.18;31.56;93804.47;4945176;28;7952;-60
2022/03/29 08:42:27;;;;;;;;;;;;;;;25.22;31.21;93799.41;4944883;28;7564;-61
2022/03/29 08:45:06;;;;;;;;;;;;;;;25.23;31.23;93795.38;4915389;29;6946;-61
2022/03/29 08:47:57;;;;;;;;;;;;;;;25.22;31.22;93790.41;4929795;29;7630;-61
2022/03/29 08:50:29;;;;;;;;;;;;;;;25.24;31.51;93793.38;4911426;29;7495;-61
2022/03/29 08:52:55;;;;;;;;;;;;;;;25.23;31.42;93794.63;4915835;29;7051;-60
2022/03/29 08:55:23;;;;;;;;;;;;;;;25.26;31.49;93790.84;4927494;29;7353;-60
2022/03/29 08:57:55;;;;;;;;;;;;;;;25.27;30.94;93789.59;4926376;29;9389;-60
2022/03/29 09:00:23;;;;;;;;;;;;;;;25.25;30.89;93781.09;4930760;29;9495;-61
2022/03/29 09:03:07;;;;;;;;;;;;;;;25.26;30.54;93783.31;4913073;29;9086;-60
2022/03/29 09:05:48;;;;;;;;;;;;;;;25.23;30.64;93789.13;4907544;29;9041;-61
2022/03/29 09:08:23;;;;;;;;;;;;;;;25.21;30.26;93786.91;4919345;29;7149;-61
2022/03/29 09:10:54;;;;;;;;;;;;;;;25.20;30.88;93771.66;4921961;29;7232;-61
2022/03/29 09:13:31;;;;;;;;;;;;;;;25.21;30.83;93770.38;4927377;28;7883;-61
2022/03/29 09:16:01;;;;;;;;;;;;;;;25.22;30.92;93771.88;4925777;29;8310;-61
2022/03/29 09:18:58;;;;;;;;;;;;;;;25.24;30.57;93768.59;4921952;29;9097;-60
2022/03/29 09:21:25;;;;;;;;;;;;;;;25.24;31.08;93765.84;4859860;29;9099;-60
2022/03/29 09:24:06;;;;;;;;;;;;;;;25.24;30.83;93765.84;4843870;29;9436;-61
2022/03/29 09:26:44;;;;;;;;;;;;;;;25.25;31.36;93765.31;4855407;29;6993;-60
2022/03/29 09:29:23;;;;;;;;;;;;;;;25.25;30.83;93765.31;4859001;29;7004;-60
2022/03/29 09:32:06;;;;;;;;;;;;;;;25.26;31.42;93752.31;4861697;29;7941;-61
2022/03/29 09:34:42;;;;;;;;;;;;;;;25.25;31.18;93745.31;4853817;29;9472;-61
2022/03/29 09:37:08;;;;;;;;;;;;;;;25.26;31.01;93739.28;4854780;29;9573;-60
2022/03/29 09:39:44;;;;;;;;;;;;;;;25.27;31.26;93740.03;4853737;29;9059;-60
2022/03/29 09:42:19;;;;;;;;;;;;;;;25.28;31.29;93741.50;4855088;29;7522;-60
2022/03/29 09:44:48;;;;;;;;;;;;;;;25.28;31.55;93733.25;4837857;29;9066;-60
2022/03/29 09:47:20;;;;;;;;;;;;;;;25.28;31.84;93731.25;4853369;29;7303;-60
2022/03/29 09:49:58;;;;;;;;;;;;;;;25.30;32.14;93727.97;4847163;29;9227;-61
2022/03/29 09:52:26;;;;;;;;;;;;;;;25.31;31.62;93724.72;4842966;29;7144;-60
2022/03/29 09:55:17;;;;;;;;;;;;;;;25.31;31.65;93724.72;4863652;29;7248;-61
2022/03/29 09:57:46;;;;;;;;;;;;;;;25.31;32.05;93724.72;4885531;29;9004;-60
2022/03/29 10:00:32;;;;;;;;;;;;;;;25.32;32.48;93714.41;4930241;28;9408;-61
2022/03/29 10:03:08;;;;;;;;;;;;;;;25.32;31.90;93719.91;4935724;28;9116;-61
2022/03/29 10:05:53;;;;;;;;;;;;;;;25.31;31.67;93710.19;4950431;28;9220;-61
2022/03/29 10:11:26;;;;;;;;;;;;;;;25.32;32.48;93703.41;4954973;28;8736;-60
2022/03/29 10:14:15;;;;;;;;;;;;;;;25.34;32.10;93698.13;4937952;28;7121;-61
2022/03/29 10:16:49;;;;;;;;;;;;;;;25.33;32.29;93693.88;4942574;28;9066;-61
2022/03/29 10:19:18;;;;;;;;;;;;;;;25.31;32.21;93688.91;4937614;28;9109;-60
2022/03/29 10:21:46;;;;;;;;;;;;;;;25.31;32.10;93679.91;4959778;28;9671;-61
2022/03/29 10:24:13;;;;;;;;;;;;;;;25.32;32.29;93670.38;4935429;28;7622;-60
2022/03/29 10:26:51;;;;;;;;;;;;;;;25.34;31.97;93682.34;4927052;29;9834;-61
2022/03/29 10:29:19;;;;;;;;;;;;;;;25.35;32.09;93674.84;4921337;28;7845;-61
2022/03/29 10:31:53;;;;;;;;;;;;;;;25.35;32.19;93680.34;4955146;28;9126;-61
2022/03/29 10:34:28;;;;;;;;;;;;;;;25.35;32.32;93664.56;4949073;28;9076;-61
2022/03/29 10:37:18;;;;;;;;;;;;;;;25.34;32.18;93663.06;4949170;28;8197;-61
2022/03/29 10:40:28;;;;;;;;;;;;;;;25.37;31.98;93664.03;4937721;28;7507;-60
2022/03/29 10:43:18;;;;;;;;;;;;;;;25.39;32.55;93665.00;4935017;28;9172;-60
2022/03/29 10:45:51;;;;;;;;;;;;;;;25.39;31.76;93661.50;4921561;28;8715;-60
2022/03/29 10:48:19;;;;;;;;;;;;;;;25.37;32.35;93645.53;4937134;28;8775;-60
2022/03/29 10:50:58;;;;;;;;;;;;;;;25.41;31.68;93645.19;4937661;28;9027;-60
2022/03/29 10:53:29;;;;;;;;;;;;;;;25.40;31.49;93644.44;4925666;28;7477;-60
2022/03/29 10:56:15;;;;;;;;;;;;;;;25.40;32.38;93638.94;4928732;29;7382;-60
2022/03/29 10:59:02;;;;;;;;;;;;;;;25.41;32.30;93637.69;4948177;28;7279;-60
2022/03/29 11:01:33;;;;;;;;;;;;;;;25.42;32.00;93635.72;4929065;28;9273;-61
2022/03/29 11:04:12;;;;;;;;;;;;;;;25.42;32.07;93635.72;4936097;28;7260;-61
2022/03/29 11:07:14;;;;;;;;;;;;;;;25.42;31.66;93630.22;4931564;29;9556;-61
2022/03/29 11:09:44;;;;;;;;;;;;;;;25.42;32.24;93622.66;4936663;28;7925;-60
2022/03/29 11:13:04;;;;;;;;;;;;;;;25.43;32.20;93617.91;4936511;28;9103;-60
2022/03/29 11:15:42;;;;;;;;;;;;;;;25.45;32.42;93618.13;4891118;29;7225;-60
2022/03/29 11:19:01;;;;;;;;;;;;;;;25.46;32.66;93610.59;4885265;29;9487;-61
2022/03/29 11:21:39;;;;;;;;;;;;;;;25.45;32.44;93601.59;4886332;29;8866;-60
2022/03/29 11:24:10;;;;;;;;;;;;;;;25.46;32.03;93600.34;4876555;29;7063;-60
2022/03/29 11:26:54;;;;;;;;;;;;;;;25.47;31.67;93601.81;4877547;29;7063;-60
2022/03/29 11:29:20;;;;;;;;;;;;;;;25.47;31.60;93588.03;4871315;29;9115;-61
2022/03/29 11:32:01;;;;;;;;;;;;;;;25.47;31.62;93595.59;4870862;29;9041;-60
2022/03/29 11:34:37;;;;;;;;;;;;;;;25.48;31.70;93595.06;4876215;29;7651;-60
2022/03/29 11:37:30;;;;;;;;;;;;;;;25.46;31.91;93585.81;4882608;29;9264;-60
2022/03/29 11:40:01;;;;;;;;;;;;;;;25.49;31.65;93591.00;4881834;29;9004;-60
2022/03/29 11:42:51;;;;;;;;;;;;;;;25.50;31.90;93586.25;4879388;29;9483;-60
2022/03/29 11:45:20;;;;;;;;;;;;;;;25.50;31.76;93589.75;4886426;29;9556;-60
2022/03/29 11:48:07;;;;;;;;;;;;;;;25.51;31.29;93576.72;4872990;29;7142;-60
2022/03/29 11:50:39;;;;;;;;;;;;;;;25.48;31.72;93564.75;4896498;29;7132;-61
2022/03/29 11:53:36;;;;;;;;;;;;;;;25.50;31.45;93566.97;4906393;29;8949;-60
2022/03/29 11:56:04;;;;;;;;;;;;;;;25.49;31.45;93565.50;4913060;28;7258;-61
2022/03/29 11:58:34;;;;;;;;;;;;;;;25.52;31.60;93569.94;4938199;28;7580;-61
2022/03/29 12:01:08;;;;;;;;;;;;;;;25.53;31.48;93569.44;4927430;28;8819;-61
2022/03/29 12:03:43;;;;;;;;;;;;;;;25.53;31.09;93563.94;4942737;28;9147;-61
2022/03/29 12:06:16;;;;;;;;;;;;;;;25.53;31.24;93565.94;4940230;28;9262;-60
2022/03/29 12:09:04;;;;;;;;;;;;;;;25.53;31.64;93555.66;4936686;28;7219;-60
2022/03/29 12:11:32;;;;;;;;;;;;;;;25.56;31.28;93556.59;4938018;28;7476;-60
2022/03/29 12:14:10;;;;;;;;;;;;;;;25.56;31.62;93551.84;4937171;28;7046;-60
2022/03/29 12:16:39;;;;;;;;;;;;;;;25.55;31.29;93544.84;4925591;28;9135;-60
2022/03/29 12:19:08;;;;;;;;;;;;;;;25.59;31.05;93541.78;4931910;28;7027;-61
2022/03/29 12:21:34;;;;;;;;;;;;;;;25.59;31.66;93537.00;4937486;28;7706;-61
2022/03/29 12:24:06;;;;;;;;;;;;;;;25.60;31.36;93532.25;4927098;28;7193;-61
2022/03/29 12:26:37;;;;;;;;;;;;;;;25.59;31.63;93528.75;4935695;28;7017;-60
2022/03/29 12:29:10;;;;;;;;;;;;;;;25.59;31.59;93520.50;4935304;28;9073;-60
2022/03/29 12:31:39;;;;;;;;;;;;;;;25.61;31.20;93514.44;4947854;28;7018;-60
2022/03/29 12:34:06;;;;;;;;;;;;;;;25.60;31.56;93513.69;4936091;28;9647;-61
2022/03/29 12:36:41;;;;;;;;;;;;;;;25.62;31.15;93508.41;4943982;28;8831;-60
2022/03/29 12:39:09;;;;;;;;;;;;;;;25.62;31.43;93500.13;4935978;28;9252;-60
2022/03/29 12:41:46;;;;;;;;;;;;;;;25.63;31.35;93496.13;4941080;28;7322;-61
2022/03/29 12:44:26;;;;;;;;;;;;;;;25.65;31.55;93492.81;4950921;28;9226;-60
2022/03/29 12:46:52;;;;;;;;;;;;;;;25.65;31.16;93485.31;4940390;28;7265;-61
2022/03/29 12:49:21;;;;;;;;;;;;;;;25.66;31.26;93484.06;4930378;28;9014;-61
2022/03/29 12:52:00;;;;;;;;;;;;;;;25.69;30.65;93477.47;4939490;28;7249;-61
2022/03/29 12:54:55;;;;;;;;;;;;;;;25.67;31.15;93466.25;4939425;28;7288;-61
2022/03/29 12:57:34;;;;;;;;;;;;;;;25.66;30.71;93473.03;4956788;28;8745;-60
2022/03/29 13:00:18;;;;;;;;;;;;;;;25.65;30.34;93460.53;4951923;28;6986;-61
2022/03/29 13:02:49;;;;;;;;;;;;;;;25.67;30.47;93457.97;4945530;28;8763;-61
2022/03/29 13:05:18;;;;;;;;;;;;;;;25.68;30.50;93459.47;4931578;28;9162;-61
2022/03/29 13:07:50;;;;;;;;;;;;;;;25.66;30.21;93455.75;4932631;28;9382;-61
2022/03/29 13:10:40;;;;;;;;;;;;;;;25.69;30.44;93449.91;4953725;28;7328;-61
2022/03/29 13:13:19;;;;;;;;;;;;;;;25.69;31.04;93449.91;4936290;28;9052;-61
2022/03/29 13:15:48;;;;;;;;;;;;;;;25.69;31.12;93444.41;4934655;28;7226;-61
2022/03/29 13:18:22;;;;;;;;;;;;;;;25.71;31.40;93441.88;4944075;28;8789;-61
2022/03/29 13:21:05;;;;;;;;;;;;;;;25.70;31.74;93447.91;4939125;28;9023;-61
2022/03/29 13:23:46;;;;;;;;;;;;;;;25.68;30.71;93437.44;4933321;28;7441;-61
2022/03/29 13:26:22;;;;;;;;;;;;;;;25.71;31.66;93425.34;4936520;28;9112;-61
2022/03/29 13:29:06;;;;;;;;;;;;;;;25.72;31.44;93426.84;4954061;28;7276;-61
2022/03/29 13:31:34;;;;;;;;;;;;;;;25.72;31.56;93431.59;4935349;28;7831;-60
2022/03/29 13:34:04;;;;;;;;;;;;;;;25.75;31.69;93427.78;4955706;28;7831;-60
2022/03/29 13:36:32;;;;;;;;;;;;;;;25.74;31.21;93424.28;4949458;28;9602;-61
2022/03/29 13:39:06;;;;;;;;;;;;;;;25.75;31.40;93414.72;4937255;28;8829;-61
2022/03/29 13:41:36;;;;;;;;;;;;;;;25.75;31.54;93409.22;4937990;28;6980;-61
2022/03/29 13:44:06;;;;;;;;;;;;;;;25.74;31.30;93410.50;4943796;28;7263;-60
2022/03/29 13:46:35;;;;;;;;;;;;;;;25.75;31.14;93414.00;4958340;28;9883;-60